Terminal Aerodrome Forecast
Issued by NWS

Home | Current Version | Previous Version | Text Only | Print | Product List | Glossary On
Versions: 1 2 3 4 5 6 7 8 9 10 11 12 13 14 15 16 17 18 19 20 21 22 23 24 25 26 27 28
000
FTUS41 KPBZ 310539
TAFMGW
TAF
KMGW 310539Z 3106/0106 VRB03KT 3SM BR SCT100
     FM310800 00000KT 1SM BR BKN005
      TEMPO 3108/3112 1/2SM FG
     FM311300 21004KT 3SM BR BKN010
     FM311500 23005KT P6SM BKN025
     FM311700 23007KT P6SM VCSH BKN040
     FM010200 00000KT P6SM SCT250=

USA.gov is the U.S. government's official web portal to all federal, state and local government web resources and services.